sensor_id;sensor_type;location;lat;lon;timestamp;pressure;altitude;pressure_sealevel;temperature;humidity
11523;BME280;40093;43.224;27.910;2022-11-21T00:01:50;99822.41;;;15.90;100.00
11523;BME280;40093;43.224;27.910;2022-11-21T00:04:17;99808.19;;;15.88;100.00
11523;BME280;40093;43.224;27.910;2022-11-21T00:06:44;99806.63;;;15.87;100.00
11523;BME280;40093;43.224;27.910;2022-11-21T00:09:11;99797.44;;;15.90;100.00
11523;BME280;40093;43.224;27.910;2022-11-21T00:11:38;99805.69;;;15.94;100.00
11523;BME280;40093;43.224;27.910;2022-11-21T00:14:05;99796.94;;;15.95;100.00
11523;BME280;40093;43.224;27.910;2022-11-21T00:16:33;99791.31;;;15.99;100.00
11523;BME280;40093;43.224;27.910;2022-11-21T00:19:00;99786.13;;;16.01;100.00
11523;BME280;40093;43.224;27.910;2022-11-21T00:21:27;99788.81;;;16.04;100.00
11523;BME280;40093;43.224;27.910;2022-11-21T00:23:54;99784.84;;;16.05;100.00
11523;BME280;40093;43.224;27.910;2022-11-21T00:26:21;99780.78;;;16.10;100.00
11523;BME280;40093;43.224;27.910;2022-11-21T00:28:48;99763.25;;;16.13;100.00
11523;BME280;40093;43.224;27.910;2022-11-21T00:31:19;99763.31;;;16.09;100.00
11523;BME280;40093;43.224;27.910;2022-11-21T00:33:47;99762.56;;;16.09;100.00
11523;BME280;40093;43.224;27.910;2022-11-21T00:36:14;99748.25;;;16.10;100.00
11523;BME280;40093;43.224;27.910;2022-11-21T00:38:41;99747.75;;;16.15;100.00
11523;BME280;40093;43.224;27.910;2022-11-21T00:41:08;99729.53;;;16.14;100.00
11523;BME280;40093;43.224;27.910;2022-11-21T00:43:34;99719.97;;;16.15;100.00
11523;BME280;40093;43.224;27.910;2022-11-21T00:46:01;99729.78;;;16.20;100.00
11523;BME280;40093;43.224;27.910;2022-11-21T00:48:30;99724.94;;;16.24;100.00
11523;BME280;40093;43.224;27.910;2022-11-21T00:51:00;99713.75;;;16.27;100.00
11523;BME280;40093;43.224;27.910;2022-11-21T00:53:27;99716.00;;;16.32;100.00
11523;BME280;40093;43.224;27.910;2022-11-21T00:55:54;99710.38;;;16.36;100.00
11523;BME280;40093;43.224;27.910;2022-11-21T00:58:22;99698.84;;;16.37;100.00
11523;BME280;40093;43.224;27.910;2022-11-21T01:00:49;99696.75;;;16.41;100.00
11523;BME280;40093;43.224;27.910;2022-11-21T01:03:15;99690.34;;;16.44;100.00
11523;BME280;40093;43.224;27.910;2022-11-21T01:05:42;99676.91;;;16.43;100.00
11523;BME280;40093;43.224;27.910;2022-11-21T01:08:11;99666.56;;;16.43;100.00
11523;BME280;40093;43.224;27.910;2022-11-21T01:10:38;99642.38;;;16.44;100.00
11523;BME280;40093;43.224;27.910;2022-11-21T01:13:05;99638.44;;;16.41;100.00
11523;BME280;40093;43.224;27.910;2022-11-21T01:15:33;99643.66;;;16.39;100.00
11523;BME280;40093;43.224;27.910;2022-11-21T01:17:59;99638.13;;;16.39;100.00
11523;BME280;40093;43.224;27.910;2022-11-21T01:20:27;99628.56;;;16.40;100.00
11523;BME280;40093;43.224;27.910;2022-11-21T01:22:54;99637.56;;;16.44;100.00
11523;BME280;40093;43.224;27.910;2022-11-21T01:25:22;99626.47;;;16.44;100.00
11523;BME280;40093;43.224;27.910;2022-11-21T01:27:49;99620.56;;;16.42;100.00
11523;BME280;40093;43.224;27.910;2022-11-21T01:30:16;99621.28;;;16.46;100.00
11523;BME280;40093;43.224;27.910;2022-11-21T01:32:47;99626.38;;;16.48;100.00
11523;BME280;40093;43.224;27.910;2022-11-21T01:35:14;99621.16;;;16.50;100.00
11523;BME280;40093;43.224;27.910;2022-11-21T01:37:41;99610.75;;;16.54;100.00
11523;BME280;40093;43.224;27.910;2022-11-21T01:40:09;99603.75;;;16.49;100.00
11523;BME280;40093;43.224;27.910;2022-11-21T01:42:53;99599.31;;;16.52;100.00
11523;BME280;40093;43.224;27.910;2022-11-21T01:45:50;99599.19;;;16.55;100.00
11523;BME280;40093;43.224;27.910;2022-11-21T01:48:20;99573.34;;;16.58;100.00
11523;BME280;40093;43.224;27.910;2022-11-21T01:50:48;99581.34;;;16.56;100.00
11523;BME280;40093;43.224;27.910;2022-11-21T01:53:15;99571.41;;;16.55;100.00
11523;BME280;40093;43.224;27.910;2022-11-21T01:55:42;99567.88;;;16.55;100.00
11523;BME280;40093;43.224;27.910;2022-11-21T01:58:12;99580.13;;;16.57;100.00
11523;BME280;40093;43.224;27.910;2022-11-21T02:00:41;99578.00;;;16.61;100.00
11523;BME280;40093;43.224;27.910;2022-11-21T02:03:11;99576.47;;;16.60;100.00
11523;BME280;40093;43.224;27.910;2022-11-21T02:05:41;99588.94;;;16.68;100.00
11523;BME280;40093;43.224;27.910;2022-11-21T02:08:11;99571.28;;;16.75;100.00
11523;BME280;40093;43.224;27.910;2022-11-21T02:10:44;99568.66;;;16.84;100.00
11523;BME280;40093;43.224;27.910;2022-11-21T02:13:15;99580.88;;;16.86;100.00
11523;BME280;40093;43.224;27.910;2022-11-21T02:15:42;99577.91;;;16.93;100.00
11523;BME280;40093;43.224;27.910;2022-11-21T02:18:10;99567.47;;;16.97;100.00
11523;BME280;40093;43.224;27.910;2022-11-21T02:20:40;99576.34;;;16.92;100.00
11523;BME280;40093;43.224;27.910;2022-11-21T02:23:13;99578.56;;;16.97;100.00
11523;BME280;40093;43.224;27.910;2022-11-21T02:25:46;99581.50;;;17.06;100.00
11523;BME280;40093;43.224;27.910;2022-11-21T02:28:18;99557.38;;;17.03;100.00
11523;BME280;40093;43.224;27.910;2022-11-21T02:30:48;99575.94;;;17.06;100.00
11523;BME280;40093;43.224;27.910;2022-11-21T02:33:14;99574.84;;;17.16;100.00
11523;BME280;40093;43.224;27.910;2022-11-21T02:35:42;99568.75;;;17.21;100.00
11523;BME280;40093;43.224;27.910;2022-11-21T02:38:15;99572.84;;;17.29;100.00
11523;BME280;40093;43.224;27.910;2022-11-21T02:40:49;99556.88;;;17.33;100.00
11523;BME280;40093;43.224;27.910;2022-11-21T02:43:21;99555.78;;;17.43;100.00
11523;BME280;40093;43.224;27.910;2022-11-21T02:45:49;99557.09;;;17.51;100.00
11523;BME280;40093;43.224;27.910;2022-11-21T02:48:16;99542.75;;;17.53;100.00
11523;BME280;40093;43.224;27.910;2022-11-21T02:50:46;99537.00;;;17.60;100.00
11523;BME280;40093;43.224;27.910;2022-11-21T02:53:16;99532.53;;;17.62;100.00
11523;BME280;40093;43.224;27.910;2022-11-21T02:55:43;99521.63;;;17.67;100.00
11523;BME280;40093;43.224;27.910;2022-11-21T02:58:12;99529.63;;;17.78;100.00
11523;BME280;40093;43.224;27.910;2022-11-21T03:00:40;99519.13;;;17.82;100.00
11523;BME280;40093;43.224;27.910;2022-11-21T03:03:08;99522.59;;;17.86;100.00
11523;BME280;40093;43.224;27.910;2022-11-21T03:05:35;99524.47;;;17.89;100.00
11523;BME280;40093;43.224;27.910;2022-11-21T03:08:02;99516.13;;;17.89;100.00
11523;BME280;40093;43.224;27.910;2022-11-21T03:10:29;99511.56;;;17.95;100.00
11523;BME280;40093;43.224;27.910;2022-11-21T03:12:56;99499.97;;;17.96;100.00
11523;BME280;40093;43.224;27.910;2022-11-21T03:15:28;99497.06;;;18.00;100.00
11523;BME280;40093;43.224;27.910;2022-11-21T03:17:55;99494.28;;;18.00;100.00
11523;BME280;40093;43.224;27.910;2022-11-21T03:20:23;99479.81;;;18.05;100.00
11523;BME280;40093;43.224;27.910;2022-11-21T03:22:50;99489.34;;;18.04;100.00
11523;BME280;40093;43.224;27.910;2022-11-21T03:25:18;99474.25;;;18.05;100.00
11523;BME280;40093;43.224;27.910;2022-11-21T03:27:45;99473.34;;;18.08;100.00
11523;BME280;40093;43.224;27.910;2022-11-21T03:30:12;99470.63;;;18.17;100.00
11523;BME280;40093;43.224;27.910;2022-11-21T03:32:41;99473.06;;;18.15;100.00
11523;BME280;40093;43.224;27.910;2022-11-21T03:35:08;99468.16;;;18.19;100.00
11523;BME280;40093;43.224;27.910;2022-11-21T03:37:35;99473.16;;;18.24;100.00
11523;BME280;40093;43.224;27.910;2022-11-21T03:40:02;99470.34;;;18.24;100.00
11523;BME280;40093;43.224;27.910;2022-11-21T03:42:29;99460.13;;;18.21;100.00
11523;BME280;40093;43.224;27.910;2022-11-21T03:44:56;99462.91;;;18.21;100.00
11523;BME280;40093;43.224;27.910;2022-11-21T03:47:23;99449.31;;;18.23;100.00
11523;BME280;40093;43.224;27.910;2022-11-21T03:49:53;99451.78;;;18.21;100.00
11523;BME280;40093;43.224;27.910;2022-11-21T03:52:20;99454.25;;;18.19;100.00
11523;BME280;40093;43.224;27.910;2022-11-21T03:54:47;99448.22;;;18.20;100.00
11523;BME280;40093;43.224;27.910;2022-11-21T03:57:14;99437.53;;;18.19;100.00
11523;BME280;40093;43.224;27.910;2022-11-21T03:59:40;99432.41;;;18.17;100.00
11523;BME280;40093;43.224;27.910;2022-11-21T04:02:07;99423.63;;;18.19;100.00
11523;BME280;40093;43.224;27.910;2022-11-21T04:04:34;99423.50;;;18.22;100.00
11523;BME280;40093;43.224;27.910;2022-11-21T04:07:02;99426.41;;;18.19;100.00
11523;BME280;40093;43.224;27.910;2022-11-21T04:09:29;99416.81;;;18.20;100.00
11523;BME280;40093;43.224;27.910;2022-11-21T04:11:56;99421.47;;;18.23;100.00
11523;BME280;40093;43.224;27.910;2022-11-21T04:14:23;99421.16;;;18.21;100.00
11523;BME280;40093;43.224;27.910;2022-11-21T04:16:50;99429.94;;;18.19;100.00
11523;BME280;40093;43.224;27.910;2022-11-21T04:19:16;99419.28;;;18.18;100.00
11523;BME280;40093;43.224;27.910;2022-11-21T04:21:43;99413.25;;;18.19;100.00
11523;BME280;40093;43.224;27.910;2022-11-21T04:24:11;99417.91;;;18.22;100.00
11523;BME280;40093;43.224;27.910;2022-11-21T04:26:38;99421.16;;;18.21;100.00
11523;BME280;40093;43.224;27.910;2022-11-21T04:29:05;99410.22;;;18.26;100.00
11523;BME280;40093;43.224;27.910;2022-11-21T04:31:32;99407.22;;;18.21;100.00
11523;BME280;40093;43.224;27.910;2022-11-21T04:34:00;99388.66;;;18.18;100.00
11523;BME280;40093;43.224;27.910;2022-11-21T04:36:28;99396.72;;;18.25;100.00
11523;BME280;40093;43.224;27.910;2022-11-21T04:38:55;99394.53;;;18.20;100.00
11523;BME280;40093;43.224;27.910;2022-11-21T04:41:24;99403.22;;;18.22;100.00
11523;BME280;40093;43.224;27.910;2022-11-21T04:43:51;99387.47;;;18.28;100.00
11523;BME280;40093;43.224;27.910;2022-11-21T04:46:17;99391.50;;;18.27;100.00
11523;BME280;40093;43.224;27.910;2022-11-21T04:48:44;99400.97;;;18.29;100.00
11523;BME280;40093;43.224;27.910;2022-11-21T04:51:11;99391.50;;;18.27;100.00
11523;BME280;40093;43.224;27.910;2022-11-21T04:53:38;99376.03;;;18.26;100.00
11523;BME280;40093;43.224;27.910;2022-11-21T04:56:05;99370.09;;;18.24;100.00
11523;BME280;40093;43.224;27.910;2022-11-21T04:58:34;99350.97;;;18.26;100.00
11523;BME280;40093;43.224;27.910;2022-11-21T05:01:05;99344.53;;;18.16;100.00
11523;BME280;40093;43.224;27.910;2022-11-21T05:03:32;99350.06;;;18.29;100.00
11523;BME280;40093;43.224;27.910;2022-11-21T05:05:59;99354.06;;;18.28;100.00
11523;BME280;40093;43.224;27.910;2022-11-21T05:08:26;99346.59;;;18.25;100.00
11523;BME280;40093;43.224;27.910;2022-11-21T05:10:52;99355.66;;;18.29;100.00
11523;BME280;40093;43.224;27.910;2022-11-21T05:13:38;99372.34;;;18.29;100.00
11523;BME280;40093;43.224;27.910;2022-11-21T05:16:05;99350.84;;;18.29;100.00
11523;BME280;40093;43.224;27.910;2022-11-21T05:18:32;99350.72;;;18.33;100.00
11523;BME280;40093;43.224;27.910;2022-11-21T05:21:00;99346.69;;;18.34;100.00
11523;BME280;40093;43.224;27.910;2022-11-21T05:23:27;99338.94;;;18.29;100.00
11523;BME280;40093;43.224;27.910;2022-11-21T05:25:54;99333.91;;;18.24;100.00
11523;BME280;40093;43.224;27.910;2022-11-21T05:28:21;99338.25;;;18.25;100.00
11523;BME280;40093;43.224;27.910;2022-11-21T05:30:50;99329.44;;;18.26;100.00
11523;BME280;40093;43.224;27.910;2022-11-21T05:33:16;99324.22;;;18.28;100.00
11523;BME280;40093;43.224;27.910;2022-11-21T05:35:43;99322.78;;;18.24;100.00
11523;BME280;40093;43.224;27.910;2022-11-21T05:38:11;99318.22;;;18.30;100.00
11523;BME280;40093;43.224;27.910;2022-11-21T05:40:38;99314.09;;;18.22;100.00
11523;BME280;40093;43.224;27.910;2022-11-21T05:43:05;99330.63;;;18.38;100.00
11523;BME280;40093;43.224;27.910;2022-11-21T05:45:51;99340.25;;;18.46;100.00
11523;BME280;40093;43.224;27.910;2022-11-21T05:48:18;99330.72;;;18.56;100.00
11523;BME280;40093;43.224;27.910;2022-11-21T05:50:46;99331.84;;;18.67;100.00
11523;BME280;40093;43.224;27.910;2022-11-21T05:53:14;99328.97;;;18.80;100.00
11523;BME280;40093;43.224;27.910;2022-11-21T05:55:40;99332.25;;;18.87;100.00
11523;BME280;40093;43.224;27.910;2022-11-21T05:58:07;99315.69;;;18.93;100.00
11523;BME280;40093;43.224;27.910;2022-11-21T06:00:35;99334.00;;;19.03;100.00
11523;BME280;40093;43.224;27.910;2022-11-21T06:03:04;99325.66;;;19.12;100.00
11523;BME280;40093;43.224;27.910;2022-11-21T06:05:48;99328.47;;;19.21;100.00
11523;BME280;40093;43.224;27.910;2022-11-21T06:08:15;99315.19;;;19.25;100.00
11523;BME280;40093;43.224;27.910;2022-11-21T06:10:42;99282.19;;;19.32;100.00
11523;BME280;40093;43.224;27.910;2022-11-21T06:13:08;99348.84;;;19.39;100.00
11523;BME280;40093;43.224;27.910;2022-11-21T06:15:50;99265.59;;;19.47;100.00
11523;BME280;40093;43.224;27.910;2022-11-21T06:18:19;99308.53;;;19.58;100.00
11523;BME280;40093;43.224;27.910;2022-11-21T06:20:46;99348.38;;;19.59;100.00
11523;BME280;40093;43.224;27.910;2022-11-21T06:23:13;99351.81;;;19.54;100.00
11523;BME280;40093;43.224;27.910;2022-11-21T06:25:41;99376.56;;;19.43;100.00
11523;BME280;40093;43.224;27.910;2022-11-21T06:28:08;99381.97;;;19.37;100.00
11523;BME280;40093;43.224;27.910;2022-11-21T06:30:35;99345.69;;;19.19;100.00
11523;BME280;40093;43.224;27.910;2022-11-21T06:33:03;99372.22;;;18.93;100.00
11523;BME280;40093;43.224;27.910;2022-11-21T06:35:36;99337.59;;;18.73;100.00
11523;BME280;40093;43.224;27.910;2022-11-21T06:38:04;99333.19;;;18.54;100.00
11523;BME280;40093;43.224;27.910;2022-11-21T06:40:31;99367.16;;;18.40;100.00
11523;BME280;40093;43.224;27.910;2022-11-21T06:42:58;99386.59;;;18.31;100.00
11523;BME280;40093;43.224;27.910;2022-11-21T06:45:25;99371.66;;;18.25;100.00
11523;BME280;40093;43.224;27.910;2022-11-21T06:47:51;99350.56;;;18.15;100.00
11523;BME280;40093;43.224;27.910;2022-11-21T06:50:18;99334.38;;;18.01;100.00
11523;BME280;40093;43.224;27.910;2022-11-21T06:52:46;99367.78;;;18.01;100.00
11523;BME280;40093;43.224;27.910;2022-11-21T06:55:14;99356.00;;;17.97;100.00
11523;BME280;40093;43.224;27.910;2022-11-21T06:57:40;99342.81;;;17.88;100.00
11523;BME280;40093;43.224;27.910;2022-11-21T07:00:08;99336.97;;;17.95;100.00
11523;BME280;40093;43.224;27.910;2022-11-21T07:02:35;99348.56;;;17.94;100.00
11523;BME280;40093;43.224;27.910;2022-11-21T07:05:02;99361.47;;;18.00;100.00
11523;BME280;40093;43.224;27.910;2022-11-21T07:07:29;99363.78;;;18.02;100.00
11523;BME280;40093;43.224;27.910;2022-11-21T07:09:57;99360.91;;;17.93;100.00
11523;BME280;40093;43.224;27.910;2022-11-21T07:12:24;99350.56;;;17.93;100.00
11523;BME280;40093;43.224;27.910;2022-11-21T07:15:09;99347.00;;;17.93;100.00
11523;BME280;40093;43.224;27.910;2022-11-21T07:17:36;99346.34;;;17.89;100.00
11523;BME280;40093;43.224;27.910;2022-11-21T07:20:04;99350.06;;;17.86;100.00
11523;BME280;40093;43.224;27.910;2022-11-21T07:22:31;99352.84;;;17.86;100.00
11523;BME280;40093;43.224;27.910;2022-11-21T07:24:59;99338.91;;;17.86;100.00
11523;BME280;40093;43.224;27.910;2022-11-21T07:27:26;99354.94;;;17.82;100.00
11523;BME280;40093;43.224;27.910;2022-11-21T07:29:53;99351.59;;;17.87;100.00
11523;BME280;40093;43.224;27.910;2022-11-21T07:32:22;99345.13;;;17.90;100.00
11523;BME280;40093;43.224;27.910;2022-11-21T07:34:49;99339.00;;;17.95;100.00
11523;BME280;40093;43.224;27.910;2022-11-21T07:37:16;99345.13;;;17.90;100.00
11523;BME280;40093;43.224;27.910;2022-11-21T07:39:42;99348.91;;;17.96;100.00
11523;BME280;40093;43.224;27.910;2022-11-21T07:42:11;99353.03;;;17.91;100.00
11523;BME280;40093;43.224;27.910;2022-11-21T07:44:38;99362.50;;;17.94;100.00
11523;BME280;40093;43.224;27.910;2022-11-21T07:47:05;99349.47;;;17.91;100.00
11523;BME280;40093;43.224;27.910;2022-11-21T07:49:32;99340.88;;;17.98;100.00
11523;BME280;40093;43.224;27.910;2022-11-21T07:51:59;99352.00;;;17.98;100.00
11523;BME280;40093;43.224;27.910;2022-11-21T07:54:25;99358.19;;;18.02;100.00
11523;BME280;40093;43.224;27.910;2022-11-21T07:56:53;99359.94;;;18.08;100.00
11523;BME280;40093;43.224;27.910;2022-11-21T07:59:21;99363.13;;;18.19;100.00
11523;BME280;40093;43.224;27.910;2022-11-21T08:01:49;99363.66;;;18.27;100.00
11523;BME280;40093;43.224;27.910;2022-11-21T08:04:16;99369.63;;;18.38;100.00
11523;BME280;40093;43.224;27.910;2022-11-21T08:06:44;99363.19;;;18.80;100.00
11523;BME280;40093;43.224;27.910;2022-11-21T08:09:11;99347.63;;;19.10;100.00
11523;BME280;40093;43.224;27.910;2022-11-21T08:11:37;99357.63;;;19.20;100.00
11523;BME280;40093;43.224;27.910;2022-11-21T08:14:05;99364.19;;;19.44;100.00
11523;BME280;40093;43.224;27.910;2022-11-21T08:16:33;99373.53;;;19.77;100.00
11523;BME280;40093;43.224;27.910;2022-11-21T08:19:00;99372.59;;;19.80;100.00
11523;BME280;40093;43.224;27.910;2022-11-21T08:21:27;99376.25;;;19.41;100.00
11523;BME280;40093;43.224;27.910;2022-11-21T08:23:54;99368.91;;;19.16;100.00
11523;BME280;40093;43.224;27.910;2022-11-21T08:26:21;99368.34;;;18.91;100.00
11523;BME280;40093;43.224;27.910;2022-11-21T08:28:47;99370.13;;;18.76;100.00
11523;BME280;40093;43.224;27.910;2022-11-21T08:31:14;99367.06;;;18.83;100.00
11523;BME280;40093;43.224;27.910;2022-11-21T08:33:43;99365.78;;;18.75;100.00
11523;BME280;40093;43.224;27.910;2022-11-21T08:36:10;99351.06;;;18.65;100.00
11523;BME280;40093;43.224;27.910;2022-11-21T08:38:36;99359.28;;;18.78;100.00
11523;BME280;40093;43.224;27.910;2022-11-21T08:41:03;99368.25;;;19.12;100.00
11523;BME280;40093;43.224;27.910;2022-11-21T08:43:47;99378.31;;;19.49;100.00
11523;BME280;40093;43.224;27.910;2022-11-21T08:46:14;99371.94;;;19.49;100.00
11523;BME280;40093;43.224;27.910;2022-11-21T08:48:43;99365.47;;;19.70;100.00
11523;BME280;40093;43.224;27.910;2022-11-21T08:51:10;99370.41;;;19.75;100.00
11523;BME280;40093;43.224;27.910;2022-11-21T08:53:37;99359.25;;;19.93;100.00
11523;BME280;40093;43.224;27.910;2022-11-21T08:56:04;99353.38;;;20.00;100.00
11523;BME280;40093;43.224;27.910;2022-11-21T08:58:31;99350.72;;;19.87;100.00
11523;BME280;40093;43.224;27.910;2022-11-21T09:00:58;99347.47;;;19.71;100.00
11523;BME280;40093;43.224;27.910;2022-11-21T09:03:25;99346.06;;;19.66;100.00
11523;BME280;40093;43.224;27.910;2022-11-21T09:05:56;99350.88;;;19.66;100.00
11523;BME280;40093;43.224;27.910;2022-11-21T09:08:23;99313.53;;;19.81;100.00
11523;BME280;40093;43.224;27.910;2022-11-21T09:10:49;99330.09;;;19.67;100.00
11523;BME280;40093;43.224;27.910;2022-11-21T09:13:17;99325.94;;;19.71;100.00
11523;BME280;40093;43.224;27.910;2022-11-21T09:15:44;99321.75;;;19.76;100.00
11523;BME280;40093;43.224;27.910;2022-11-21T09:18:28;99333.22;;;20.05;100.00
11523;BME280;40093;43.224;27.910;2022-11-21T09:20:56;99320.44;;;20.39;100.00
11523;BME280;40093;43.224;27.910;2022-11-21T09:23:23;99309.16;;;20.66;100.00
11523;BME280;40093;43.224;27.910;2022-11-21T09:25:50;99315.66;;;20.72;100.00
11523;BME280;40093;43.224;27.910;2022-11-21T09:28:17;99313.59;;;20.82;100.00
11523;BME280;40093;43.224;27.910;2022-11-21T09:30:44;99294.28;;;20.93;100.00
11523;BME280;40093;43.224;27.910;2022-11-21T09:33:12;99291.75;;;21.04;100.00
11523;BME280;40093;43.224;27.910;2022-11-21T09:35:39;99295.63;;;21.06;100.00
11523;BME280;40093;43.224;27.910;2022-11-21T09:38:09;99280.00;;;20.91;100.00
11523;BME280;40093;43.224;27.910;2022-11-21T09:40:40;99284.94;;;20.63;100.00
11523;BME280;40093;43.224;27.910;2022-11-21T09:43:28;99272.31;;;20.35;100.00
11523;BME280;40093;43.224;27.910;2022-11-21T09:46:00;99264.72;;;20.36;100.00
11523;BME280;40093;43.224;27.910;2022-11-21T09:48:31;99252.34;;;20.19;100.00
11523;BME280;40093;43.224;27.910;2022-11-21T09:51:06;99252.22;;;20.05;100.00
11523;BME280;40093;43.224;27.910;2022-11-21T09:53:39;99244.75;;;20.02;100.00
11523;BME280;40093;43.224;27.910;2022-11-21T09:56:16;99244.78;;;19.93;100.00
11523;BME280;40093;43.224;27.910;2022-11-21T09:58:48;99272.41;;;19.91;100.00
11523;BME280;40093;43.224;27.910;2022-11-21T10:01:16;99260.63;;;19.87;100.00
11523;BME280;40093;43.224;27.910;2022-11-21T10:03:45;99268.34;;;19.92;100.00
11523;BME280;40093;43.224;27.910;2022-11-21T10:06:17;99262.78;;;19.92;100.00
11523;BME280;40093;43.224;27.910;2022-11-21T10:08:54;99252.22;;;19.96;100.00
11523;BME280;40093;43.224;27.910;2022-11-21T10:11:36;99260.91;;;19.98;100.00
11523;BME280;40093;43.224;27.910;2022-11-21T10:14:36;99248.50;;;20.08;100.00
11523;BME280;40093;43.224;27.910;2022-11-21T10:17:17;99255.66;;;20.09;100.00
11523;BME280;40093;43.224;27.910;2022-11-21T10:22:59;99223.78;;;20.24;100.00
11523;BME280;40093;43.224;27.910;2022-11-21T10:25:35;99213.81;;;20.64;100.00
11523;BME280;40093;43.224;27.910;2022-11-21T10:28:06;99201.53;;;20.94;100.00
11523;BME280;40093;43.224;27.910;2022-11-21T10:30:39;99204.41;;;20.76;100.00
11523;BME280;40093;43.224;27.910;2022-11-21T10:33:13;99214.16;;;20.57;100.00
11523;BME280;40093;43.224;27.910;2022-11-21T10:35:43;99214.06;;;20.43;100.00
11523;BME280;40093;43.224;27.910;2022-11-21T10:38:19;99221.88;;;20.30;100.00
11523;BME280;40093;43.224;27.910;2022-11-21T10:40:50;99232.78;;;20.19;100.00
11523;BME280;40093;43.224;27.910;2022-11-21T10:43:26;99219.13;;;20.21;100.00
11523;BME280;40093;43.224;27.910;2022-11-21T10:46:13;99203.00;;;20.16;100.00
11523;BME280;40093;43.224;27.910;2022-11-21T10:48:40;99203.19;;;20.13;100.00
11523;BME280;40093;43.224;27.910;2022-11-21T10:51:17;99200.97;;;20.17;100.00
11523;BME280;40093;43.224;27.910;2022-11-21T10:54:02;99209.72;;;20.10;100.00
11523;BME280;40093;43.224;27.910;2022-11-21T10:56:48;99200.03;;;20.29;100.00
11523;BME280;40093;43.224;27.910;2022-11-21T10:59:22;99194.28;;;20.55;100.00
11523;BME280;40093;43.224;27.910;2022-11-21T11:01:55;99196.97;;;20.73;100.00
11523;BME280;40093;43.224;27.910;2022-11-21T11:04:22;99173.94;;;20.87;100.00
11523;BME280;40093;43.224;27.910;2022-11-21T11:06:49;99191.34;;;20.82;100.00
11523;BME280;40093;43.224;27.910;2022-11-21T11:09:28;99190.84;;;20.84;100.00
11523;BME280;40093;43.224;27.910;2022-11-21T11:12:26;99194.44;;;20.84;100.00
11523;BME280;40093;43.224;27.910;2022-11-21T11:15:16;99183.09;;;20.88;100.00
11523;BME280;40093;43.224;27.910;2022-11-21T11:17:48;99180.78;;;20.86;100.00
11523;BME280;40093;43.224;27.910;2022-11-21T11:20:31;99182.84;;;20.77;100.00
11523;BME280;40093;43.224;27.910;2022-11-21T11:22:58;99174.91;;;20.75;100.00
11523;BME280;40093;43.224;27.910;2022-11-21T11:25:25;99173.13;;;20.63;100.00
11523;BME280;40093;43.224;27.910;2022-11-21T11:27:53;99166.75;;;20.63;100.00
11523;BME280;40093;43.224;27.910;2022-11-21T11:30:21;99174.38;;;20.62;100.00
11523;BME280;40093;43.224;27.910;2022-11-21T11:32:47;99178.88;;;20.60;100.00
11523;BME280;40093;43.224;27.910;2022-11-21T11:35:21;99182.53;;;20.51;100.00
11523;BME280;40093;43.224;27.910;2022-11-21T11:37:57;99178.44;;;20.61;100.00
11523;BME280;40093;43.224;27.910;2022-11-21T11:40:30;99177.41;;;20.73;100.00
11523;BME280;40093;43.224;27.910;2022-11-21T11:43:15;99164.47;;;20.85;100.00
11523;BME280;40093;43.224;27.910;2022-11-21T11:46:21;99176.44;;;20.85;100.00
11523;BME280;40093;43.224;27.910;2022-11-21T11:49:14;99171.22;;;20.69;100.00
11523;BME280;40093;43.224;27.910;2022-11-21T11:51:47;99176.47;;;20.76;100.00
11523;BME280;40093;43.224;27.910;2022-11-21T11:54:19;99169.13;;;20.88;100.00
11523;BME280;40093;43.224;27.910;2022-11-21T11:56:48;99174.63;;;20.73;100.00
11523;BME280;40093;43.224;27.910;2022-11-21T11:59:20;99170.34;;;20.63;100.00
11523;BME280;40093;43.224;27.910;2022-11-21T12:01:52;99173.66;;;20.53;100.00
11523;BME280;40093;43.224;27.910;2022-11-21T12:04:23;99170.72;;;20.47;100.00
11523;BME280;40093;43.224;27.910;2022-11-21T12:06:53;99155.25;;;20.37;100.00
11523;BME280;40093;43.224;27.910;2022-11-21T12:09:26;99157.34;;;20.28;100.00
11523;BME280;40093;43.224;27.910;2022-11-21T12:11:58;99168.50;;;20.28;100.00
11523;BME280;40093;43.224;27.910;2022-11-21T12:14:44;99157.84;;;20.18;100.00
11523;BME280;40093;43.224;27.910;2022-11-21T12:17:49;99168.97;;;20.27;100.00
11523;BME280;40093;43.224;27.910;2022-11-21T12:20:21;99161.47;;;20.41;100.00
11523;BME280;40093;43.224;27.910;2022-11-21T12:22:51;99166.03;;;20.53;100.00
11523;BME280;40093;43.224;27.910;2022-11-21T12:25:22;99163.25;;;20.53;100.00
11523;BME280;40093;43.224;27.910;2022-11-21T12:27:53;99179.22;;;20.53;100.00
11523;BME280;40093;43.224;27.910;2022-11-21T12:30:45;99189.03;;;20.48;100.00
11523;BME280;40093;43.224;27.910;2022-11-21T12:33:19;99197.81;;;20.33;100.00
11523;BME280;40093;43.224;27.910;2022-11-21T12:36:13;99197.00;;;20.09;100.00
11523;BME280;40093;43.224;27.910;2022-11-21T12:38:53;99204.13;;;20.01;100.00
11523;BME280;40093;43.224;27.910;2022-11-21T12:41:29;99217.63;;;20.02;100.00
11523;BME280;40093;43.224;27.910;2022-11-21T12:44:29;99218.53;;;19.99;100.00
11523;BME280;40093;43.224;27.910;2022-11-21T12:47:13;99228.69;;;19.70;100.00
11523;BME280;40093;43.224;27.910;2022-11-21T12:49:49;99237.69;;;19.29;100.00
11523;BME280;40093;43.224;27.910;2022-11-21T12:52:39;99243.88;;;19.15;100.00
11523;BME280;40093;43.224;27.910;2022-11-21T12:55:34;99258.06;;;18.99;100.00
11523;BME280;40093;43.224;27.910;2022-11-21T12:58:23;99268.56;;;18.77;100.00
11523;BME280;40093;43.224;27.910;2022-11-21T13:01:05;99276.72;;;18.62;100.00